Time,TemperatureF,DewpointF,PressureIn,WindDirection,WindDirectionDegrees,WindSpeedMPH,WindSpeedGustMPH,Humidity,HourlyPrecipIn,Conditions,Clouds,dailyrainin,SoftwareType,DateUTC
2013-01-04 00:00:00,23.3,18.9,30.33,WSW,255,0.0,1.0,83,0.00,,---,0.00,VWS V14.01,2013-01-04 05:00:00,
2013-01-04 00:01:00,23.3,18.9,30.33,WNW,293,2.0,2.0,83,0.00,,---,0.00,VWS V14.01,2013-01-04 05:01:00,
2013-01-04 00:03:00,23.2,18.8,30.33,SW,232,0.0,8.0,83,0.00,,---,0.00,VWS V14.01,2013-01-04 05:03:00,
2013-01-04 00:04:00,23.2,18.8,30.33,West,264,4.0,8.0,83,0.00,,---,0.00,VWS V14.01,2013-01-04 05:04:00,
2013-01-04 00:09:00,23.1,18.7,30.33,NW,312,6.0,8.0,83,0.00,,---,0.00,VWS V14.01,2013-01-04 05:09:00,
2013-01-04 00:14:00,23.1,18.7,30.33,West,276,0.0,10.0,83,0.00,,---,0.00,VWS V14.01,2013-01-04 05:14:00,
2013-01-04 00:19:00,22.9,18.8,30.33,WNW,300,0.0,10.0,84,0.00,,---,0.00,VWS V14.01,2013-01-04 05:19:00,
2013-01-04 00:24:00,22.8,18.7,30.33,WSW,244,2.0,10.0,84,0.00,,---,0.00,VWS V14.01,2013-01-04 05:24:00,
2013-01-04 00:29:00,22.7,18.6,30.33,WSW,239,2.0,12.0,84,0.00,,---,0.00,VWS V14.01,2013-01-04 05:29:00,
2013-01-04 00:34:00,22.7,18.6,30.33,SSW,195,2.0,7.0,84,0.00,,---,0.00,VWS V14.01,2013-01-04 05:34:00,
2013-01-04 00:39:00,22.8,18.7,30.33,WSW,239,3.0,11.0,84,0.00,,---,0.00,VWS V14.01,2013-01-04 05:39:00,
2013-01-04 00:45:00,22.8,18.7,30.33,WNW,283,1.0,11.0,84,0.00,,---,0.00,VWS V14.01,2013-01-04 05:45:00,
2013-01-04 00:50:00,22.7,18.9,30.33,WSW,250,4.0,11.0,85,0.00,,---,0.00,VWS V14.01,2013-01-04 05:50:00,
2013-01-04 00:55:00,22.5,18.7,30.32,NW,311,6.0,11.0,85,0.00,,---,0.00,VWS V14.01,2013-01-04 05:55:00,
2013-01-04 01:00:00,22.4,18.6,30.32,WSW,252,3.0,3.0,85,0.00,,---,0.00,VWS V14.01,2013-01-04 06:00:00,
2013-01-04 01:05:00,22.3,18.8,30.32,WNW,289,5.0,9.0,86,0.00,,---,0.00,VWS V14.01,2013-01-04 06:05:00,
2013-01-04 01:10:00,22.3,18.8,30.32,WNW,300,1.0,9.0,86,0.00,,---,0.00,VWS V14.01,2013-01-04 06:10:00,
2013-01-04 01:15:00,22.2,18.7,30.32,WNW,284,12.0,12.0,86,0.00,,---,0.00,VWS V14.01,2013-01-04 06:15:00,
2013-01-04 01:20:00,22.3,18.8,30.32,WNW,293,0.0,12.0,86,0.00,,---,0.00,VWS V14.01,2013-01-04 06:20:00,
2013-01-04 01:25:00,22.1,18.6,30.32,NW,316,2.0,12.0,86,0.00,,---,0.00,VWS V14.01,2013-01-04 06:25:00,
2013-01-04 01:30:00,22.1,18.6,30.32,WNW,297,3.0,7.0,86,0.00,,---,0.00,VWS V14.01,2013-01-04 06:30:00,
2013-01-04 01:35:00,22.1,18.6,30.32,South,180,2.0,7.0,86,0.00,,---,0.00,VWS V14.01,2013-01-04 06:35:00,
2013-01-04 01:41:00,22.0,18.5,30.32,WSW,252,2.0,9.0,86,0.00,,---,0.00,VWS V14.01,2013-01-04 06:41:00,
2013-01-04 01:46:00,21.8,18.5,30.33,NW,312,1.0,9.0,87,0.00,,---,0.00,VWS V14.01,2013-01-04 06:46:00,
2013-01-04 01:51:00,21.7,18.4,30.33,SE,126,1.0,9.0,87,0.00,,---,0.00,VWS V14.01,2013-01-04 06:51:00,
2013-01-04 01:56:00,21.6,18.3,30.33,West,281,2.0,9.0,87,0.00,,---,0.00,VWS V14.01,2013-01-04 06:56:00,
2013-01-04 02:01:00,21.5,18.2,30.33,SW,226,2.0,6.0,87,0.00,,---,0.00,VWS V14.01,2013-01-04 07:01:00,
2013-01-04 02:06:00,21.4,18.1,30.33,North,356,2.0,7.0,87,0.00,,---,0.00,VWS V14.01,2013-01-04 07:06:00,
2013-01-04 02:11:00,21.4,18.1,30.34,West,278,0.0,7.0,87,0.00,,---,0.00,VWS V14.01,2013-01-04 07:11:00,
2013-01-04 02:16:00,21.2,17.9,30.34,WSW,242,1.0,7.0,87,0.00,,---,0.00,VWS V14.01,2013-01-04 07:16:00,
2013-01-04 02:21:00,21.1,17.8,30.34,West,277,9.0,9.0,87,0.00,,---,0.00,VWS V14.01,2013-01-04 07:21:00,
2013-01-04 02:26:00,21.2,17.9,30.34,WNW,298,5.0,9.0,87,0.00,,---,0.00,VWS V14.01,2013-01-04 07:26:00,
2013-01-04 02:32:00,21.2,17.9,30.34,WSW,238,2.0,6.0,87,0.00,,---,0.00,VWS V14.01,2013-01-04 07:32:00,
2013-01-04 02:37:00,21.0,17.8,30.35,West,281,3.0,7.0,87,0.00,,---,0.00,VWS V14.01,2013-01-04 07:37:00,
2013-01-04 02:42:00,21.0,17.8,30.35,SW,215,2.0,8.0,87,0.00,,---,0.00,VWS V14.01,2013-01-04 07:42:00,
2013-01-04 02:47:00,20.7,17.7,30.35,SW,215,6.0,8.0,88,0.00,,---,0.00,VWS V14.01,2013-01-04 07:47:00,
2013-01-04 02:52:00,20.8,17.8,30.35,NNE,30,2.0,8.0,88,0.00,,---,0.00,VWS V14.01,2013-01-04 07:52:00,
2013-01-04 02:57:00,20.8,17.8,30.35,SW,215,2.0,8.0,88,0.00,,---,0.00,VWS V14.01,2013-01-04 07:57:00,
2013-01-04 03:02:00,20.7,17.5,30.35,SW,225,2.0,4.0,87,0.00,,---,0.00,VWS V14.01,2013-01-04 08:02:00,
2013-01-04 03:07:00,20.5,17.5,30.35,SW,231,3.0,7.0,88,0.00,,---,0.00,VWS V14.01,2013-01-04 08:07:00,
2013-01-04 03:12:00,20.4,17.4,30.35,SW,233,0.0,7.0,88,0.00,,---,0.00,VWS V14.01,2013-01-04 08:12:00,
2013-01-04 03:17:00,20.2,17.5,30.35,West,281,2.0,7.0,89,0.00,,---,0.00,VWS V14.01,2013-01-04 08:17:00,
2013-01-04 03:22:00,20.3,17.6,30.34,SW,221,2.0,7.0,89,0.00,,---,0.00,VWS V14.01,2013-01-04 08:22:00,
2013-01-04 03:27:00,20.5,17.8,30.35,WSW,249,4.0,7.0,89,0.00,,---,0.00,VWS V14.01,2013-01-04 08:27:00,
2013-01-04 03:33:00,20.7,18.0,30.35,WSW,245,3.0,8.0,89,0.00,,---,0.00,VWS V14.01,2013-01-04 08:33:00,
2013-01-04 03:38:00,20.9,17.9,30.35,NW,325,2.0,9.0,88,0.00,,---,0.00,VWS V14.01,2013-01-04 08:38:00,
2013-01-04 03:43:00,21.2,18.2,30.35,West,276,4.0,12.0,88,0.00,,---,0.00,VWS V14.01,2013-01-04 08:43:00,
2013-01-04 03:48:00,21.4,18.1,30.35,SW,229,5.0,12.0,87,0.00,,---,0.00,VWS V14.01,2013-01-04 08:48:00,
2013-01-04 03:53:00,21.5,18.2,30.35,WSW,257,4.0,12.0,87,0.00,,---,0.00,VWS V14.01,2013-01-04 08:53:00,
2013-01-04 03:58:00,21.5,18.2,30.35,West,276,4.0,12.0,87,0.00,,---,0.00,VWS V14.01,2013-01-04 08:58:00,
2013-01-04 04:03:00,21.6,18.3,30.35,SSW,208,4.0,7.0,87,0.00,,---,0.00,VWS V14.01,2013-01-04 09:03:00,
2013-01-04 04:08:00,21.6,18.1,30.35,WNW,291,5.0,11.0,86,0.00,,---,0.00,VWS V14.01,2013-01-04 09:08:00,
2013-01-04 04:13:00,21.7,18.2,30.35,SSW,212,3.0,14.0,86,0.00,,---,0.00,VWS V14.01,2013-01-04 09:13:00,
2013-01-04 04:18:00,21.7,18.2,30.35,SW,235,6.0,14.0,86,0.00,,---,0.00,VWS V14.01,2013-01-04 09:18:00,
2013-01-04 04:23:00,21.7,18.2,30.35,WSW,248,8.0,14.0,86,0.00,,---,0.00,VWS V14.01,2013-01-04 09:23:00,
2013-01-04 04:28:00,21.7,18.2,30.35,NE,39,2.0,14.0,86,0.00,,---,0.00,VWS V14.01,2013-01-04 09:28:00,
2013-01-04 04:33:00,21.6,18.1,30.35,West,266,3.0,13.0,86,0.00,,---,0.00,VWS V14.01,2013-01-04 09:33:00,
2013-01-04 04:39:00,21.7,18.2,30.35,SW,217,5.0,13.0,86,0.00,,---,0.00,VWS V14.01,2013-01-04 09:39:00,
2013-01-04 04:44:00,21.7,18.2,30.35,WSW,248,1.0,13.0,86,0.00,,---,0.00,VWS V14.01,2013-01-04 09:44:00,
2013-01-04 04:49:00,21.7,18.2,30.34,SW,218,5.0,14.0,86,0.00,,---,0.00,VWS V14.01,2013-01-04 09:49:00,
2013-01-04 04:54:00,21.7,18.2,30.34,West,263,5.0,14.0,86,0.00,,---,0.00,VWS V14.01,2013-01-04 09:54:00,
2013-01-04 04:59:00,21.7,18.2,30.35,WSW,255,3.0,14.0,86,0.00,,---,0.00,VWS V14.01,2013-01-04 09:59:00,
2013-01-04 05:04:00,21.7,18.2,30.34,South,184,2.0,10.0,86,0.00,,---,0.00,VWS V14.01,2013-01-04 10:04:00,
2013-01-04 05:09:00,21.7,18.2,30.34,SW,224,4.0,11.0,86,0.00,,---,0.00,VWS V14.01,2013-01-04 10:09:00,
2013-01-04 05:14:00,21.6,18.1,30.34,West,275,5.0,11.0,86,0.00,,---,0.00,VWS V14.01,2013-01-04 10:14:00,
2013-01-04 05:19:00,21.6,18.1,30.33,WSW,251,2.0,11.0,86,0.00,,---,0.00,VWS V14.01,2013-01-04 10:19:00,
2013-01-04 05:24:00,21.6,18.1,30.33,WSW,239,2.0,11.0,86,0.00,,---,0.00,VWS V14.01,2013-01-04 10:24:00,
2013-01-04 05:29:00,21.5,18.0,30.34,SW,226,9.0,11.0,86,0.00,,---,0.00,VWS V14.01,2013-01-04 10:29:00,
2013-01-04 05:34:00,21.5,18.0,30.33,WSW,248,3.0,6.0,86,0.00,,---,0.00,VWS V14.01,2013-01-04 10:34:00,
2013-01-04 05:39:00,21.5,18.0,30.33,SW,214,0.0,8.0,86,0.00,,---,0.00,VWS V14.01,2013-01-04 10:39:00,
2013-01-04 05:44:00,21.4,17.9,30.34,SW,236,3.0,9.0,86,0.00,,---,0.00,VWS V14.01,2013-01-04 10:44:00,
2013-01-04 05:49:00,21.5,18.0,30.34,SW,232,7.0,10.0,86,0.00,,---,0.00,VWS V14.01,2013-01-04 10:49:00,
2013-01-04 05:54:00,21.5,18.0,30.34,SW,222,4.0,10.0,86,0.00,,---,0.00,VWS V14.01,2013-01-04 10:54:00,
2013-01-04 05:59:00,21.5,18.0,30.34,SW,225,3.0,10.0,86,0.00,,---,0.00,VWS V14.01,2013-01-04 10:59:00,
2013-01-04 06:04:00,21.5,18.0,30.34,SW,232,8.0,8.0,86,0.00,,---,0.00,VWS V14.01,2013-01-04 11:04:00,
2013-01-04 06:09:00,21.6,18.3,30.34,WSW,257,7.0,12.0,87,0.00,,---,0.00,VWS V14.01,2013-01-04 11:09:00,
2013-01-04 06:14:00,21.5,18.2,30.34,SW,224,4.0,12.0,87,0.00,,---,0.00,VWS V14.01,2013-01-04 11:14:00,
2013-01-04 06:19:00,21.5,18.2,30.34,SW,226,4.0,12.0,87,0.00,,---,0.00,VWS V14.01,2013-01-04 11:19:00,
2013-01-04 06:25:00,21.5,18.2,30.34,West,259,3.0,12.0,87,0.00,,---,0.00,VWS V14.01,2013-01-04 11:25:00,
2013-01-04 06:30:00,21.5,18.2,30.34,SW,219,5.0,13.0,87,0.00,,---,0.00,VWS V14.01,2013-01-04 11:30:00,
2013-01-04 06:35:00,21.5,18.2,30.34,WNW,283,4.0,14.0,87,0.00,,---,0.00,VWS V14.01,2013-01-04 11:35:00,
2013-01-04 06:40:00,21.5,18.2,30.34,WNW,293,7.0,14.0,87,0.00,,---,0.00,VWS V14.01,2013-01-04 11:40:00,
2013-01-04 06:45:00,21.5,18.2,30.34,NW,309,8.0,17.0,87,0.00,,---,0.00,VWS V14.01,2013-01-04 11:45:00,
2013-01-04 06:50:00,21.5,18.2,30.34,NE,47,2.0,17.0,87,0.00,,---,0.00,VWS V14.01,2013-01-04 11:50:00,
2013-01-04 06:55:00,21.5,18.5,30.34,SSW,205,4.0,17.0,88,0.00,,---,0.00,VWS V14.01,2013-01-04 11:55:00,
2013-01-04 07:00:00,21.4,18.4,30.34,WNW,302,2.0,6.0,88,0.00,,---,0.00,VWS V14.01,2013-01-04 12:00:00,
2013-01-04 07:05:00,21.4,18.4,30.34,WSW,242,7.0,12.0,88,0.00,,---,0.00,VWS V14.01,2013-01-04 12:05:00,
2013-01-04 07:10:00,21.4,18.4,30.34,WSW,242,2.0,13.0,88,0.00,,---,0.00,VWS V14.01,2013-01-04 12:10:00,
2013-01-04 07:15:00,21.4,18.4,30.34,WSW,253,7.0,13.0,88,0.00,,---,0.00,VWS V14.01,2013-01-04 12:15:00,
2013-01-04 07:20:00,21.5,18.5,30.34,SW,215,2.0,13.0,88,0.00,,---,0.00,VWS V14.01,2013-01-04 12:20:00,
2013-01-04 07:25:00,21.5,18.5,30.34,SW,222,3.0,13.0,88,0.00,,---,0.00,VWS V14.01,2013-01-04 12:25:00,
2013-01-04 07:30:00,21.5,18.5,30.35,South,181,1.0,6.0,88,0.00,,---,0.00,VWS V14.01,2013-01-04 12:30:00,
2013-01-04 07:35:00,21.5,18.5,30.35,SSW,201,2.0,9.0,88,0.00,,---,0.00,VWS V14.01,2013-01-04 12:35:00,
2013-01-04 07:40:00,21.5,18.5,30.35,West,265,4.0,10.0,88,0.00,,---,0.00,VWS V14.01,2013-01-04 12:40:00,
2013-01-04 07:46:00,21.5,18.5,30.35,SW,235,9.0,13.0,88,0.00,,---,0.00,VWS V14.01,2013-01-04 12:46:00,
2013-01-04 07:51:00,21.5,18.5,30.35,WSW,240,14.0,14.0,88,0.00,,---,0.00,VWS V14.01,2013-01-04 12:51:00,
2013-01-04 07:56:00,21.5,18.5,30.35,WSW,240,1.0,15.0,88,0.00,,---,0.00,VWS V14.01,2013-01-04 12:56:00,
2013-01-04 08:01:00,21.5,18.5,30.35,WNW,285,3.0,10.0,88,0.00,,---,0.00,VWS V14.01,2013-01-04 13:01:00,
2013-01-04 08:06:00,21.5,18.5,30.35,West,259,3.0,12.0,88,0.00,,---,0.00,VWS V14.01,2013-01-04 13:06:00,
2013-01-04 08:11:00,21.5,18.5,30.35,WNW,283,2.0,13.0,88,0.00,,---,0.00,VWS V14.01,2013-01-04 13:11:00,
2013-01-04 08:16:00,21.5,18.5,30.35,WSW,245,9.0,13.0,88,0.00,,---,0.00,VWS V14.01,2013-01-04 13:16:00,
2013-01-04 08:21:00,21.6,18.6,30.36,SW,231,5.0,13.0,88,0.00,,---,0.00,VWS V14.01,2013-01-04 13:21:00,
2013-01-04 08:26:00,21.6,18.6,30.37,SW,226,3.0,13.0,88,0.00,,---,0.00,VWS V14.01,2013-01-04 13:26:00,
2013-01-04 08:31:00,21.6,18.3,30.36,WNW,290,2.0,6.0,87,0.00,,---,0.00,VWS V14.01,2013-01-04 13:31:00,
2013-01-04 08:36:00,21.6,18.6,30.36,SW,224,7.0,13.0,88,0.00,,---,0.00,VWS V14.01,2013-01-04 13:36:00,
2013-01-04 08:41:00,21.6,18.6,30.36,SW,225,3.0,13.0,88,0.00,,---,0.00,VWS V14.01,2013-01-04 13:41:00,
2013-01-04 08:46:00,21.7,18.7,30.36,WSW,251,4.0,13.0,88,0.00,,---,0.00,VWS V14.01,2013-01-04 13:46:00,
2013-01-04 08:51:00,21.7,18.7,30.36,SW,226,4.0,13.0,88,0.00,,---,0.00,VWS V14.01,2013-01-04 13:51:00,
2013-01-04 08:56:00,21.8,18.8,30.37,West,264,3.0,13.0,88,0.00,,---,0.00,VWS V14.01,2013-01-04 13:56:00,
2013-01-04 09:02:00,21.8,18.8,30.37,WSW,245,4.0,7.0,88,0.00,,---,0.00,VWS V14.01,2013-01-04 14:02:00,
2013-01-04 09:07:00,21.8,18.5,30.37,West,259,2.0,16.0,87,0.00,,---,0.00,VWS V14.01,2013-01-04 14:07:00,
2013-01-04 09:12:00,21.9,18.6,30.37,SW,231,7.0,16.0,87,0.00,,---,0.00,VWS V14.01,2013-01-04 14:12:00,
2013-01-04 09:17:00,21.9,18.6,30.37,WNW,293,2.0,16.0,87,0.00,,---,0.00,VWS V14.01,2013-01-04 14:17:00,
2013-01-04 09:22:00,22.0,18.7,30.38,WSW,242,0.0,16.0,87,0.00,,---,0.00,VWS V14.01,2013-01-04 14:22:00,
2013-01-04 09:27:00,22.1,19.1,30.37,SW,215,2.0,16.0,88,0.00,,---,0.00,VWS V14.01,2013-01-04 14:27:00,
2013-01-04 09:32:00,22.2,18.9,30.38,West,277,6.0,10.0,87,0.00,,---,0.00,VWS V14.01,2013-01-04 14:32:00,
2013-01-04 09:37:00,22.1,19.1,30.37,West,264,6.0,13.0,88,0.00,,---,0.00,VWS V14.01,2013-01-04 14:37:00,
2013-01-04 09:42:00,22.1,19.1,30.37,WSW,248,4.0,14.0,88,0.00,,---,0.00,VWS V14.01,2013-01-04 14:42:00,
2013-01-04 09:47:00,22.2,19.2,30.38,West,271,8.0,14.0,88,0.00,,---,0.00,VWS V14.01,2013-01-04 14:47:00,
2013-01-04 09:52:00,22.3,19.3,30.38,WSW,238,1.0,14.0,88,0.00,,---,0.00,VWS V14.01,2013-01-04 14:52:00,
2013-01-04 09:57:00,22.5,19.5,30.38,WSW,252,2.0,14.0,88,0.00,,---,0.00,VWS V14.01,2013-01-04 14:57:00,
2013-01-04 10:02:00,22.5,19.5,30.38,SW,224,6.0,8.0,88,0.00,,---,0.00,VWS V14.01,2013-01-04 15:02:00,
2013-01-04 10:07:00,22.4,19.4,30.38,SW,217,4.0,13.0,88,0.00,,---,0.00,VWS V14.01,2013-01-04 15:07:00,
2013-01-04 10:13:00,22.5,19.5,30.38,WSW,248,7.0,13.0,88,0.00,,---,0.00,VWS V14.01,2013-01-04 15:13:00,
2013-01-04 10:18:00,22.5,19.5,30.38,SSW,200,3.0,13.0,88,0.00,,---,0.00,VWS V14.01,2013-01-04 15:18:00,
2013-01-04 10:23:00,22.9,19.9,30.39,WSW,250,11.0,15.0,88,0.00,,---,0.00,VWS V14.01,2013-01-04 15:23:00,
2013-01-04 10:28:00,22.9,19.4,30.39,SW,233,7.0,15.0,86,0.00,,---,0.00,VWS V14.01,2013-01-04 15:28:00,
2013-01-04 10:33:00,23.0,19.5,30.38,SW,219,7.0,11.0,86,0.00,,---,0.00,VWS V14.01,2013-01-04 15:33:00,
2013-01-04 10:38:00,22.9,19.4,30.39,WSW,239,12.0,14.0,86,0.00,,---,0.00,VWS V14.01,2013-01-04 15:38:00,
2013-01-04 10:43:00,23.0,19.7,30.38,SW,233,3.0,14.0,87,0.00,,---,0.00,VWS V14.01,2013-01-04 15:43:00,
2013-01-04 10:48:00,22.9,19.6,30.38,South,186,6.0,14.0,87,0.00,,---,0.00,VWS V14.01,2013-01-04 15:48:00,
2013-01-04 10:53:00,22.9,19.6,30.38,SW,226,6.0,14.0,87,0.00,,---,0.00,VWS V14.01,2013-01-04 15:53:00,
2013-01-04 10:58:00,22.9,19.6,30.38,SSW,200,7.0,14.0,87,0.00,,---,0.00,VWS V14.01,2013-01-04 15:58:00,
2013-01-04 11:03:00,22.8,19.5,30.38,South,186,10.0,14.0,87,0.00,,---,0.00,VWS V14.01,2013-01-04 16:03:00,
2013-01-04 11:08:00,22.8,19.5,30.38,SW,231,8.0,16.0,87,0.00,,---,0.00,VWS V14.01,2013-01-04 16:08:00,
2013-01-04 11:14:00,22.8,19.5,30.38,SW,224,8.0,16.0,87,0.00,,---,0.00,VWS V14.01,2013-01-04 16:14:00,
2013-01-04 11:19:00,22.7,19.4,30.38,SW,225,7.0,16.0,87,0.00,,---,0.00,VWS V14.01,2013-01-04 16:19:00,
2013-01-04 11:24:00,22.6,19.3,30.37,SW,229,9.0,17.0,87,0.00,,---,0.00,VWS V14.01,2013-01-04 16:24:00,
2013-01-04 11:29:00,22.6,19.3,30.37,SW,229,7.0,17.0,87,0.00,,---,0.00,VWS V14.01,2013-01-04 16:29:00,
2013-01-04 11:34:00,22.7,19.4,30.37,South,186,3.0,14.0,87,0.00,,---,0.00,VWS V14.01,2013-01-04 16:34:00,
2013-01-04 11:39:00,22.9,19.6,30.36,WSW,248,5.0,16.0,87,0.00,,---,0.00,VWS V14.01,2013-01-04 16:39:00,
2013-01-04 11:44:00,23.0,19.7,30.36,WNW,297,8.0,16.0,87,0.00,,---,0.00,VWS V14.01,2013-01-04 16:44:00,
2013-01-04 11:49:00,22.9,19.6,30.35,WSW,252,8.0,16.0,87,0.00,,---,0.00,VWS V14.01,2013-01-04 16:49:00,
2013-01-04 11:54:00,23.1,19.8,30.36,SSW,200,4.0,16.0,87,0.00,,---,0.00,VWS V14.01,2013-01-04 16:54:00,
2013-01-04 11:59:00,23.1,19.5,30.36,WSW,245,6.0,16.0,86,0.00,,---,0.00,VWS V14.01,2013-01-04 16:59:00,
2013-01-04 12:04:00,23.0,19.5,30.36,WSW,255,15.0,17.0,86,0.00,,---,0.00,VWS V14.01,2013-01-04 17:04:00,
2013-01-04 12:09:00,23.1,19.5,30.35,West,269,5.0,17.0,86,0.00,,---,0.00,VWS V14.01,2013-01-04 17:09:00,
2013-01-04 12:14:00,23.2,19.6,30.35,SW,235,5.0,17.0,86,0.00,,---,0.00,VWS V14.01,2013-01-04 17:14:00,
2013-01-04 12:19:00,23.4,19.8,30.35,WSW,242,6.0,17.0,86,0.00,,---,0.00,VWS V14.01,2013-01-04 17:19:00,
2013-01-04 12:25:00,23.2,19.6,30.35,SW,236,5.0,17.0,86,0.00,,---,0.00,VWS V14.01,2013-01-04 17:25:00,
2013-01-04 12:30:00,23.3,20.0,30.35,SW,229,4.0,17.0,87,0.00,,---,0.00,VWS V14.01,2013-01-04 17:30:00,
2013-01-04 12:35:00,23.3,20.0,30.34,SSW,194,3.0,13.0,87,0.00,,---,0.00,VWS V14.01,2013-01-04 17:35:00,
2013-01-04 12:40:00,23.4,19.8,30.35,WSW,245,12.0,13.0,86,0.00,,---,0.00,VWS V14.01,2013-01-04 17:40:00,
2013-01-04 12:45:00,23.4,19.8,30.34,West,264,6.0,18.0,86,0.00,,---,0.00,VWS V14.01,2013-01-04 17:45:00,
2013-01-04 12:50:00,23.4,20.1,30.34,SSW,207,8.0,18.0,87,0.00,,---,0.00,VWS V14.01,2013-01-04 17:50:00,
2013-01-04 12:55:00,23.5,19.9,30.34,SW,222,13.0,18.0,86,0.00,,---,0.00,VWS V14.01,2013-01-04 17:55:00,
2013-01-04 13:00:00,23.7,20.1,30.34,SW,235,6.0,8.0,86,0.00,,---,0.00,VWS V14.01,2013-01-04 18:00:00,
2013-01-04 13:05:00,23.5,19.9,30.34,WSW,245,9.0,18.0,86,0.00,,---,0.00,VWS V14.01,2013-01-04 18:05:00,
2013-01-04 13:10:00,23.5,19.9,30.33,WSW,248,5.0,18.0,86,0.00,,---,0.00,VWS V14.01,2013-01-04 18:10:00,
2013-01-04 13:15:00,23.6,20.0,30.33,WSW,243,8.0,18.0,86,0.00,,---,0.00,VWS V14.01,2013-01-04 18:15:00,
2013-01-04 13:20:00,23.6,20.0,30.33,WSW,253,11.0,22.0,86,0.00,,---,0.00,VWS V14.01,2013-01-04 18:20:00,
2013-01-04 13:25:00,23.5,19.9,30.33,WNW,287,3.0,22.0,86,0.00,,---,0.00,VWS V14.01,2013-01-04 18:25:00,
2013-01-04 13:30:00,23.7,20.1,30.33,SSW,205,10.0,10.0,86,0.00,,---,0.00,VWS V14.01,2013-01-04 18:30:00,
2013-01-04 13:35:00,23.8,20.2,30.33,SW,214,3.0,14.0,86,0.00,,---,0.00,VWS V14.01,2013-01-04 18:35:00,
2013-01-04 13:41:00,24.1,20.5,30.32,SW,231,4.0,14.0,86,0.00,,---,0.00,VWS V14.01,2013-01-04 18:41:00,
2013-01-04 13:46:00,24.2,20.4,30.33,WSW,250,3.0,14.0,85,0.00,,---,0.00,VWS V14.01,2013-01-04 18:46:00,
2013-01-04 13:51:00,24.4,20.5,30.32,SW,229,6.0,14.0,85,0.00,,---,0.00,VWS V14.01,2013-01-04 18:51:00,
2013-01-04 13:56:00,24.3,20.5,30.32,SW,231,4.0,14.0,85,0.00,,---,0.00,VWS V14.01,2013-01-04 18:56:00,
2013-01-04 14:01:00,24.4,20.3,30.32,SW,229,4.0,7.0,84,0.00,,---,0.00,VWS V14.01,2013-01-04 19:01:00,
2013-01-04 14:06:00,24.7,20.6,30.32,SW,233,8.0,12.0,84,0.00,,---,0.00,VWS V14.01,2013-01-04 19:06:00,
2013-01-04 14:11:00,24.6,20.5,30.32,WSW,242,4.0,12.0,84,0.00,,---,0.00,VWS V14.01,2013-01-04 19:11:00,
2013-01-04 14:16:00,24.7,20.6,30.33,SW,231,5.0,12.0,84,0.00,,---,0.00,VWS V14.01,2013-01-04 19:16:00,
2013-01-04 14:21:00,24.7,20.6,30.32,WSW,243,4.0,14.0,84,0.00,,---,0.00,VWS V14.01,2013-01-04 19:21:00,
2013-01-04 14:26:00,24.9,20.8,30.32,SW,214,2.0,14.0,84,0.00,,---,0.00,VWS V14.01,2013-01-04 19:26:00,
2013-01-04 14:31:00,25.0,20.6,30.32,South,184,3.0,11.0,83,0.00,,---,0.00,VWS V14.01,2013-01-04 19:31:00,
2013-01-04 14:36:00,24.8,20.4,30.33,SW,224,3.0,12.0,83,0.00,,---,0.00,VWS V14.01,2013-01-04 19:36:00,
2013-01-04 14:41:00,24.7,20.6,30.32,SW,222,6.0,12.0,84,0.00,,---,0.00,VWS V14.01,2013-01-04 19:41:00,
2013-01-04 14:46:00,24.6,20.5,30.32,SSW,210,4.0,12.0,84,0.00,,---,0.00,VWS V14.01,2013-01-04 19:46:00,
2013-01-04 14:51:00,24.7,20.6,30.33,WSW,256,9.0,12.0,84,0.00,,---,0.00,VWS V14.01,2013-01-04 19:51:00,
2013-01-04 14:57:00,24.6,20.5,30.33,South,191,9.0,17.0,84,0.00,,---,0.00,VWS V14.01,2013-01-04 19:57:00,
2013-01-04 15:02:00,24.7,20.6,30.33,WSW,238,4.0,9.0,84,0.00,,---,0.00,VWS V14.01,2013-01-04 20:02:00,
2013-01-04 15:07:00,24.8,20.7,30.34,SW,226,5.0,10.0,84,0.00,,---,0.00,VWS V14.01,2013-01-04 20:07:00,
2013-01-04 15:12:00,24.9,20.8,30.33,SW,225,3.0,10.0,84,0.00,,---,0.00,VWS V14.01,2013-01-04 20:12:00,
2013-01-04 15:17:00,25.0,20.9,30.33,West,270,1.0,10.0,84,0.00,,---,0.00,VWS V14.01,2013-01-04 20:17:00,
2013-01-04 15:22:00,25.1,20.7,30.32,WSW,246,7.0,10.0,83,0.00,,---,0.00,VWS V14.01,2013-01-04 20:22:00,
2013-01-04 15:27:00,25.1,20.7,30.32,SW,217,4.0,10.0,83,0.00,,---,0.00,VWS V14.01,2013-01-04 20:27:00,
2013-01-04 15:32:00,25.1,20.7,30.32,SSW,208,8.0,9.0,83,0.00,,---,0.00,VWS V14.01,2013-01-04 20:32:00,
2013-01-04 15:37:00,25.4,21.0,30.32,SW,231,3.0,10.0,83,0.00,,---,0.00,VWS V14.01,2013-01-04 20:37:00,
2013-01-04 15:42:00,25.8,21.4,30.33,WSW,237,6.0,10.0,83,0.00,,---,0.00,VWS V14.01,2013-01-04 20:42:00,
2013-01-04 15:47:00,25.9,21.2,30.33,SW,228,9.0,13.0,82,0.00,,---,0.00,VWS V14.01,2013-01-04 20:47:00,
2013-01-04 15:52:00,25.8,21.1,30.33,SW,218,4.0,13.0,82,0.00,,---,0.00,VWS V14.01,2013-01-04 20:52:00,
2013-01-04 15:57:00,25.9,21.2,30.34,SW,226,4.0,13.0,82,0.00,,---,0.00,VWS V14.01,2013-01-04 20:57:00,
2013-01-04 16:02:00,25.9,21.2,30.35,SW,222,2.0,7.0,82,0.00,,---,0.00,VWS V14.01,2013-01-04 21:02:00,
2013-01-04 16:08:00,25.8,21.1,30.34,WNW,284,7.0,12.0,82,0.00,,---,0.00,VWS V14.01,2013-01-04 21:08:00,
2013-01-04 16:13:00,25.6,21.2,30.35,WNW,300,1.0,12.0,83,0.00,,---,0.00,VWS V14.01,2013-01-04 21:13:00,
2013-01-04 16:18:00,25.4,21.2,30.34,West,273,3.0,12.0,84,0.00,,---,0.00,VWS V14.01,2013-01-04 21:18:00,
2013-01-04 16:23:00,25.3,21.1,30.34,WSW,242,2.0,12.0,84,0.00,,---,0.00,VWS V14.01,2013-01-04 21:23:00,
2013-01-04 16:28:00,25.3,21.1,30.34,SW,233,4.0,12.0,84,0.00,,---,0.00,VWS V14.01,2013-01-04 21:28:00,
2013-01-04 16:33:00,25.3,21.1,30.34,West,259,4.0,14.0,84,0.00,,---,0.00,VWS V14.01,2013-01-04 21:33:00,
2013-01-04 16:38:00,25.4,21.2,30.33,WSW,250,3.0,14.0,84,0.00,,---,0.00,VWS V14.01,2013-01-04 21:38:00,
2013-01-04 16:43:00,25.5,21.4,30.33,SSW,212,3.0,14.0,84,0.00,,---,0.00,VWS V14.01,2013-01-04 21:43:00,
2013-01-04 16:48:00,25.5,21.4,30.33,SW,220,6.0,14.0,84,0.00,,---,0.00,VWS V14.01,2013-01-04 21:48:00,
2013-01-04 16:53:00,25.4,21.2,30.34,SSW,203,4.0,14.0,84,0.00,,---,0.00,VWS V14.01,2013-01-04 21:53:00,
2013-01-04 16:58:00,25.2,21.3,30.33,SSW,213,5.0,14.0,85,0.00,,---,0.00,VWS V14.01,2013-01-04 21:58:00,
2013-01-04 17:03:00,25.1,21.2,30.34,SSW,204,0.0,8.0,85,0.00,,---,0.00,VWS V14.01,2013-01-04 22:03:00,
2013-01-04 17:08:00,25.0,21.1,30.34,WSW,240,6.0,9.0,85,0.00,,---,0.00,VWS V14.01,2013-01-04 22:08:00,
2013-01-04 17:13:00,25.0,21.4,30.35,SW,231,6.0,11.0,86,0.00,,---,0.00,VWS V14.01,2013-01-04 22:13:00,
2013-01-04 17:18:00,25.0,21.4,30.34,SW,226,5.0,13.0,86,0.00,,---,0.00,VWS V14.01,2013-01-04 22:18:00,
2013-01-04 17:24:00,25.0,21.4,30.35,SSW,207,4.0,13.0,86,0.00,,---,0.00,VWS V14.01,2013-01-04 22:24:00,
2013-01-04 17:29:00,24.9,21.3,30.35,SW,235,8.0,13.0,86,0.00,,---,0.00,VWS V14.01,2013-01-04 22:29:00,
2013-01-04 17:34:00,24.9,21.3,30.35,SSW,207,5.0,10.0,86,0.00,,---,0.00,VWS V14.01,2013-01-04 22:34:00,
2013-01-04 17:39:00,25.0,21.4,30.35,WSW,253,2.0,16.0,86,0.00,,---,0.00,VWS V14.01,2013-01-04 22:39:00,
2013-01-04 17:44:00,24.9,21.6,30.35,West,270,3.0,16.0,87,0.00,,---,0.00,VWS V14.01,2013-01-04 22:44:00,
2013-01-04 17:49:00,24.9,21.6,30.35,WSW,250,4.0,16.0,87,0.00,,---,0.00,VWS V14.01,2013-01-04 22:49:00,
2013-01-04 17:54:00,24.9,21.6,30.36,WSW,241,12.0,16.0,87,0.00,,---,0.00,VWS V14.01,2013-01-04 22:54:00,
2013-01-04 17:59:00,24.9,21.6,30.36,SSW,211,4.0,16.0,87,0.00,,---,0.00,VWS V14.01,2013-01-04 22:59:00,
2013-01-04 18:04:00,25.0,21.7,30.36,WSW,251,2.0,10.0,87,0.00,,---,0.00,VWS V14.01,2013-01-04 23:04:00,
2013-01-04 18:09:00,25.0,21.7,30.36,West,263,7.0,13.0,87,0.00,,---,0.00,VWS V14.01,2013-01-04 23:09:00,
2013-01-04 18:14:00,25.2,21.9,30.36,WNW,298,5.0,14.0,87,0.00,,---,0.00,VWS V14.01,2013-01-04 23:14:00,
2013-01-04 18:19:00,25.2,21.9,30.37,WSW,239,5.0,14.0,87,0.00,,---,0.00,VWS V14.01,2013-01-04 23:19:00,
2013-01-04 18:24:00,25.2,21.6,30.37,SW,221,4.0,14.0,86,0.00,,---,0.00,VWS V14.01,2013-01-04 23:24:00,
2013-01-04 18:29:00,25.3,21.7,30.37,WSW,242,4.0,14.0,86,0.00,,---,0.00,VWS V14.01,2013-01-04 23:29:00,
2013-01-04 18:34:00,25.3,21.7,30.37,West,280,4.0,14.0,86,0.00,,---,0.00,VWS V14.01,2013-01-04 23:34:00,
2013-01-04 18:39:00,25.3,21.7,30.37,WSW,238,5.0,14.0,86,0.00,,---,0.00,VWS V14.01,2013-01-04 23:39:00,
2013-01-04 18:45:00,25.3,21.7,30.38,ESE,110,0.0,14.0,86,0.00,,---,0.00,VWS V14.01,2013-01-04 23:45:00,
2013-01-04 18:50:00,25.3,21.7,30.38,SSW,212,2.0,14.0,86,0.00,,---,0.00,VWS V14.01,2013-01-04 23:50:00,
2013-01-04 18:55:00,25.4,21.8,30.38,West,273,2.0,14.0,86,0.00,,---,0.00,VWS V14.01,2013-01-04 23:55:00,
2013-01-04 19:00:00,25.4,21.8,30.38,West,278,0.0,14.0,86,0.00,,---,0.00,VWS V14.01,2013-01-05 00:00:00,
2013-01-04 19:05:00,25.4,21.8,30.38,SW,229,5.0,15.0,86,0.00,,---,0.00,VWS V14.01,2013-01-05 00:05:00,
2013-01-04 19:10:00,25.4,21.5,30.39,SW,226,7.0,15.0,85,0.00,,---,0.00,VWS V14.01,2013-01-05 00:10:00,
2013-01-04 19:15:00,25.3,21.4,30.39,West,259,6.0,15.0,85,0.00,,---,0.00,VWS V14.01,2013-01-05 00:15:00,
2013-01-04 19:20:00,25.3,21.4,30.39,West,270,1.0,15.0,85,0.00,,---,0.00,VWS V14.01,2013-01-05 00:20:00,
2013-01-04 19:25:00,25.2,21.6,30.39,WNW,287,5.0,15.0,86,0.00,,---,0.00,VWS V14.01,2013-01-05 00:25:00,
2013-01-04 19:30:00,25.0,21.4,30.39,WSW,245,4.0,5.0,86,0.00,,---,0.00,VWS V14.01,2013-01-05 00:30:00,
2013-01-04 19:35:00,25.0,21.4,30.40,NNW,333,6.0,11.0,86,0.00,,---,0.00,VWS V14.01,2013-01-05 00:35:00,
2013-01-04 19:40:00,25.0,21.4,30.40,WSW,248,3.0,11.0,86,0.00,,---,0.00,VWS V14.01,2013-01-05 00:40:00,
2013-01-04 19:45:00,25.0,21.4,30.41,SW,232,3.0,11.0,86,0.00,,---,0.00,VWS V14.01,2013-01-05 00:45:00,
2013-01-04 19:50:00,24.9,21.3,30.40,SSW,195,3.0,12.0,86,0.00,,---,0.00,VWS V14.01,2013-01-05 00:50:00,
2013-01-04 19:55:00,24.8,21.2,30.40,WSW,250,2.0,12.0,86,0.00,,---,0.00,VWS V14.01,2013-01-05 00:55:00,
2013-01-04 20:00:00,24.7,21.1,30.40,South,186,5.0,5.0,86,0.00,,---,0.00,VWS V14.01,2013-01-05 01:00:00,
2013-01-04 20:05:00,24.6,21.3,30.39,SW,219,4.0,10.0,87,0.00,,---,0.00,VWS V14.01,2013-01-05 01:05:00,
2013-01-04 20:10:00,24.5,21.2,30.39,WSW,242,2.0,10.0,87,0.00,,---,0.00,VWS V14.01,2013-01-05 01:10:00,
2013-01-04 20:15:00,24.4,21.1,30.40,South,188,1.0,10.0,87,0.00,,---,0.00,VWS V14.01,2013-01-05 01:15:00,
2013-01-04 20:20:00,24.4,21.1,30.40,SW,233,7.0,10.0,87,0.00,,---,0.00,VWS V14.01,2013-01-05 01:20:00,
2013-01-04 20:26:00,24.3,21.0,30.39,SSW,208,1.0,10.0,87,0.00,,---,0.00,VWS V14.01,2013-01-05 01:26:00,
2013-01-04 20:31:00,24.4,21.1,30.39,SW,226,2.0,6.0,87,0.00,,---,0.00,VWS V14.01,2013-01-05 01:31:00,
2013-01-04 20:36:00,24.3,21.0,30.39,SW,218,2.0,8.0,87,0.00,,---,0.00,VWS V14.01,2013-01-05 01:36:00,
2013-01-04 20:41:00,24.2,20.9,30.39,SW,226,2.0,8.0,87,0.00,,---,0.00,VWS V14.01,2013-01-05 01:41:00,
2013-01-04 20:46:00,24.2,21.2,30.39,West,281,2.0,8.0,88,0.00,,---,0.00,VWS V14.01,2013-01-05 01:46:00,
2013-01-04 20:51:00,24.3,21.3,30.39,WNW,285,6.0,9.0,88,0.00,,---,0.00,VWS V14.01,2013-01-05 01:51:00,
2013-01-04 20:56:00,24.2,21.2,30.39,WNW,298,5.0,9.0,88,0.00,,---,0.00,VWS V14.01,2013-01-05 01:56:00,
2013-01-04 21:01:00,24.2,21.2,30.39,West,274,0.0,8.0,88,0.00,,---,0.00,VWS V14.01,2013-01-05 02:01:00,
2013-01-04 21:06:00,24.1,21.1,30.38,WSW,238,6.0,9.0,88,0.00,,---,0.00,VWS V14.01,2013-01-05 02:06:00,
2013-01-04 21:11:00,24.1,21.1,30.39,SSW,212,4.0,11.0,88,0.00,,---,0.00,VWS V14.01,2013-01-05 02:11:00,
2013-01-04 21:16:00,24.1,21.1,30.39,NW,315,6.0,11.0,88,0.00,,---,0.00,VWS V14.01,2013-01-05 02:16:00,
2013-01-04 21:21:00,24.0,21.0,30.39,West,270,2.0,11.0,88,0.00,,---,0.00,VWS V14.01,2013-01-05 02:21:00,
2013-01-04 21:26:00,24.0,21.0,30.39,West,262,3.0,11.0,88,0.00,,---,0.00,VWS V14.01,2013-01-05 02:26:00,
2013-01-04 21:32:00,23.9,20.9,30.39,West,274,4.0,9.0,88,0.00,,---,0.00,VWS V14.01,2013-01-05 02:32:00,
2013-01-04 21:37:00,23.9,20.9,30.39,SW,219,1.0,10.0,88,0.00,,---,0.00,VWS V14.01,2013-01-05 02:37:00,
2013-01-04 21:42:00,24.0,21.0,30.39,WSW,239,6.0,13.0,88,0.00,,---,0.00,VWS V14.01,2013-01-05 02:42:00,
2013-01-04 21:47:00,24.0,21.0,30.39,SW,215,2.0,13.0,88,0.00,,---,0.00,VWS V14.01,2013-01-05 02:47:00,
2013-01-04 21:52:00,23.9,20.9,30.39,SSW,204,2.0,13.0,88,0.00,,---,0.00,VWS V14.01,2013-01-05 02:52:00,
2013-01-04 21:57:00,23.9,20.9,30.39,WNW,287,1.0,13.0,88,0.00,,---,0.00,VWS V14.01,2013-01-05 02:57:00,
2013-01-04 22:02:00,23.9,20.9,30.40,WNW,294,5.0,9.0,88,0.00,,---,0.00,VWS V14.01,2013-01-05 03:02:00,
2013-01-04 22:07:00,23.8,20.8,30.40,WNW,284,5.0,9.0,88,0.00,,---,0.00,VWS V14.01,2013-01-05 03:07:00,
2013-01-04 22:12:00,23.8,20.8,30.39,WNW,291,6.0,9.0,88,0.00,,---,0.00,VWS V14.01,2013-01-05 03:12:00,
2013-01-04 22:17:00,23.8,20.8,30.40,WNW,287,5.0,9.0,88,0.00,,---,0.00,VWS V14.01,2013-01-05 03:17:00,
2013-01-04 22:22:00,23.7,20.7,30.40,WSW,248,3.0,9.0,88,0.00,,---,0.00,VWS V14.01,2013-01-05 03:22:00,
2013-01-04 22:27:00,23.8,20.8,30.40,SW,228,1.0,9.0,88,0.00,,---,0.00,VWS V14.01,2013-01-05 03:27:00,
2013-01-04 22:33:00,23.7,20.7,30.40,SSW,204,2.0,6.0,88,0.00,,---,0.00,VWS V14.01,2013-01-05 03:33:00,
2013-01-04 22:38:00,23.6,20.6,30.40,West,264,0.0,6.0,88,0.00,,---,0.00,VWS V14.01,2013-01-05 03:38:00,
2013-01-04 22:43:00,23.6,20.6,30.40,SW,222,3.0,6.0,88,0.00,,---,0.00,VWS V14.01,2013-01-05 03:43:00,
2013-01-04 22:48:00,23.7,20.7,30.40,SW,228,9.0,9.0,88,0.00,,---,0.00,VWS V14.01,2013-01-05 03:48:00,
2013-01-04 22:53:00,23.9,20.6,30.40,SSW,195,4.0,9.0,87,0.00,,---,0.00,VWS V14.01,2013-01-05 03:53:00,
2013-01-04 22:58:00,23.9,20.6,30.40,SSW,198,2.0,14.0,87,0.00,,---,0.00,VWS V14.01,2013-01-05 03:58:00,
2013-01-04 23:03:00,23.8,20.5,30.40,West,266,1.0,10.0,87,0.00,,---,0.00,VWS V14.01,2013-01-05 04:03:00,
2013-01-04 23:08:00,23.7,20.4,30.40,SW,233,3.0,10.0,87,0.00,,---,0.00,VWS V14.01,2013-01-05 04:08:00,
2013-01-04 23:13:00,23.6,20.3,30.40,SW,222,5.0,10.0,87,0.00,,---,0.00,VWS V14.01,2013-01-05 04:13:00,
2013-01-04 23:19:00,23.6,20.3,30.40,WSW,239,3.0,11.0,87,0.00,,---,0.00,VWS V14.01,2013-01-05 04:19:00,
2013-01-04 23:24:00,23.6,20.6,30.40,West,263,2.0,11.0,88,0.00,,---,0.00,VWS V14.01,2013-01-05 04:24:00,
2013-01-04 23:29:00,23.7,20.7,30.40,WSW,250,4.0,11.0,88,0.00,,---,0.00,VWS V14.01,2013-01-05 04:29:00,
2013-01-04 23:34:00,23.6,20.3,30.40,WSW,238,5.0,8.0,87,0.00,,---,0.00,VWS V14.01,2013-01-05 04:34:00,
2013-01-04 23:39:00,23.5,20.5,30.40,SW,231,2.0,12.0,88,0.00,,---,0.00,VWS V14.01,2013-01-05 04:39:00,
2013-01-04 23:44:00,23.5,20.5,30.41,West,263,5.0,12.0,88,0.00,,---,0.00,VWS V14.01,2013-01-05 04:44:00,
2013-01-04 23:49:00,23.4,20.4,30.40,SW,222,2.0,12.0,88,0.00,,---,0.00,VWS V14.01,2013-01-05 04:49:00,
2013-01-04 23:54:00,23.5,20.5,30.41,WSW,257,5.0,12.0,88,0.00,,---,0.00,VWS V14.01,2013-01-05 04:54:00,
2013-01-04 23:59:00,23.4,20.4,30.41,WSW,248,7.0,12.0,88,0.00,,---,0.00,VWS V14.01,2013-01-05 04:59:00,